createdAt,value
2018-12-26T00:00:32.166Z,17.60
2018-12-26T00:01:32.264Z,16.10
2018-12-26T00:02:32.372Z,14.70
2018-12-26T00:03:32.432Z,17.00
2018-12-26T00:04:32.499Z,16.20
2018-12-26T00:05:32.591Z,16.20
2018-12-26T00:06:32.694Z,14.90
2018-12-26T00:07:32.742Z,15.70
2018-12-26T00:08:32.823Z,15.40
2018-12-26T00:09:32.899Z,16.40
2018-12-26T00:10:32.985Z,16.40
2018-12-26T00:11:33.076Z,17.40
2018-12-26T00:12:33.162Z,15.30
2018-12-26T00:13:33.231Z,16.30
2018-12-26T00:14:33.330Z,18.40
2018-12-26T00:15:33.391Z,15.70
2018-12-26T00:16:33.494Z,17.40
2018-12-26T00:17:33.559Z,15.90
2018-12-26T00:18:33.698Z,15.10
2018-12-26T00:19:33.870Z,14.70
2018-12-26T00:20:33.829Z,14.50
2018-12-26T00:21:33.886Z,17.60
2018-12-26T00:22:33.994Z,17.10
2018-12-26T00:23:34.086Z,16.30
2018-12-26T00:24:34.137Z,16.50
2018-12-26T00:25:34.205Z,15.40
2018-12-26T00:26:34.297Z,16.40
2018-12-26T00:27:34.376Z,16.50
2018-12-26T00:28:34.460Z,16.50
2018-12-26T00:29:34.531Z,15.20
2018-12-26T00:30:34.635Z,15.80
2018-12-26T00:31:34.683Z,16.10
2018-12-26T00:32:34.773Z,15.10
2018-12-26T00:33:34.851Z,16.40
2018-12-26T00:34:34.945Z,16.10
2018-12-26T00:35:35.014Z,17.50
2018-12-26T00:36:35.073Z,16.30
2018-12-26T00:37:35.213Z,15.50
2018-12-26T00:38:35.254Z,16.20
2018-12-26T00:39:35.353Z,15.10
2018-12-26T00:40:35.420Z,17.40
2018-12-26T00:41:35.498Z,14.90
2018-12-26T00:42:35.598Z,16.10
2018-12-26T00:43:35.669Z,14.90
2018-12-26T00:44:35.757Z,14.10
2018-12-26T00:45:35.830Z,15.60
2018-12-26T00:46:35.943Z,15.60
2018-12-26T00:47:36.019Z,16.90
2018-12-26T00:48:36.110Z,16.20
2018-12-26T00:49:36.248Z,15.20
2018-12-26T00:50:36.290Z,15.30
2018-12-26T00:51:36.396Z,15.40
2018-12-26T00:52:36.461Z,16.80
2018-12-26T00:53:36.540Z,16.80
2018-12-26T00:54:36.621Z,15.60
2018-12-26T00:55:36.716Z,14.90
2018-12-26T00:56:36.780Z,16.80
2018-12-26T00:57:36.921Z,15.50
2018-12-26T00:58:36.979Z,15.70
2018-12-26T00:59:37.051Z,15.40
2018-12-26T01:00:37.170Z,15.10
2018-12-26T01:01:37.239Z,14.50
2018-12-26T01:02:37.319Z,13.90
2018-12-26T01:03:37.448Z,12.80
2018-12-26T01:04:37.530Z,12.60
2018-12-26T01:05:37.623Z,13.80
2018-12-26T01:06:37.684Z,14.70
2018-12-26T01:07:37.770Z,13.20
2018-12-26T01:08:37.857Z,13.60
2018-12-26T01:09:37.933Z,13.60
2018-12-26T01:10:38.006Z,14.40
2018-12-26T01:11:38.079Z,14.60
2018-12-26T01:12:38.167Z,14.40
2018-12-26T01:13:38.248Z,13.70
2018-12-26T01:14:38.330Z,13.30
2018-12-26T01:15:38.423Z,14.80
2018-12-26T01:16:38.468Z,16.50
2018-12-26T01:17:38.568Z,13.90
2018-12-26T01:18:38.658Z,13.70
2018-12-26T01:19:38.735Z,12.40
2018-12-26T01:20:38.811Z,13.30
2018-12-26T01:21:38.939Z,13.10
2018-12-26T01:22:38.975Z,13.20
2018-12-26T01:23:39.088Z,14.80
2018-12-26T01:24:39.147Z,13.60
2018-12-26T01:25:39.233Z,13.50
2018-12-26T01:26:39.346Z,11.60
2018-12-26T01:27:39.416Z,10.90
2018-12-26T01:28:39.451Z,11.80
2018-12-26T01:29:39.578Z,10.60
2018-12-26T01:30:39.659Z,10.40
2018-12-26T01:31:39.677Z,10.90
2018-12-26T01:32:39.764Z,9.50
2018-12-26T01:33:39.829Z,10.70
2018-12-26T01:34:39.937Z,12.90
2018-12-26T01:35:40.014Z,11.60
2018-12-26T01:36:40.095Z,9.20
2018-12-26T01:37:40.161Z,9.40
2018-12-26T01:38:40.226Z,11.50
2018-12-26T01:39:40.298Z,10.80
2018-12-26T01:40:40.400Z,11.80
2018-12-26T01:41:40.455Z,10.50
2018-12-26T01:42:40.532Z,9.50
2018-12-26T01:43:40.637Z,10.40
2018-12-26T01:44:40.707Z,11.60
2018-12-26T01:45:40.815Z,10.70
2018-12-26T01:46:40.908Z,10.30
2018-12-26T01:47:40.999Z,10.20
2018-12-26T01:48:41.109Z,11.90
2018-12-26T01:49:41.135Z,9.30
2018-12-26T01:50:41.245Z,12.10
2018-12-26T01:51:41.316Z,9.60
2018-12-26T01:52:41.378Z,9.10
2018-12-26T01:53:41.462Z,10.60
2018-12-26T01:54:41.546Z,9.50
2018-12-26T01:55:41.617Z,11.60
2018-12-26T01:56:41.708Z,12.60
2018-12-26T01:57:41.774Z,9.60
2018-12-26T01:58:41.847Z,11.40
2018-12-26T01:59:41.920Z,10.10
2018-12-26T02:00:42.010Z,10.80
2018-12-26T02:01:42.077Z,9.90
2018-12-26T02:02:42.175Z,10.30
2018-12-26T02:03:42.274Z,10.60
2018-12-26T02:04:42.338Z,9.00
2018-12-26T02:05:42.436Z,11.90
2018-12-26T02:06:42.570Z,9.90
2018-12-26T02:07:42.571Z,11.00
2018-12-26T02:08:42.700Z,12.10
2018-12-26T02:09:42.784Z,9.30
2018-12-26T02:10:42.826Z,9.20
2018-12-26T02:11:42.967Z,8.90
2018-12-26T02:12:42.997Z,10.20
2018-12-26T02:13:43.092Z,10.80
2018-12-26T02:14:43.244Z,10.00
2018-12-26T02:15:43.251Z,10.90
2018-12-26T02:16:43.355Z,11.10
2018-12-26T02:17:43.441Z,9.90
2018-12-26T02:18:43.523Z,11.50
2018-12-26T02:19:43.628Z,9.60
2018-12-26T02:20:43.694Z,10.50
2018-12-26T02:21:43.781Z,9.80
2018-12-26T02:22:43.900Z,10.10
2018-12-26T02:23:43.963Z,10.40
2018-12-26T02:24:44.075Z,8.90
2018-12-26T02:25:44.132Z,10.40
2018-12-26T02:26:44.202Z,10.20
2018-12-26T02:27:44.319Z,9.90
2018-12-26T02:28:44.403Z,8.60
2018-12-26T02:29:44.458Z,9.30
2018-12-26T02:30:44.570Z,11.10
2018-12-26T02:31:44.626Z,10.20
2018-12-26T02:32:44.881Z,9.70
2018-12-26T02:33:44.769Z,10.30
2018-12-26T02:34:44.852Z,11.10
2018-12-26T02:35:44.947Z,10.60
2018-12-26T02:36:45.012Z,11.10
2018-12-26T02:37:45.063Z,10.00
2018-12-26T02:38:45.140Z,11.20
2018-12-26T02:39:45.226Z,10.70
2018-12-26T02:40:45.295Z,10.80
2018-12-26T02:43:28.417Z,11.40
2018-12-26T02:44:28.503Z,11.10
2018-12-26T02:45:28.586Z,12.90
2018-12-26T02:46:28.679Z,11.80
2018-12-26T02:47:28.762Z,12.20
2018-12-26T02:48:28.853Z,11.70
2018-12-26T02:49:28.933Z,12.10
2018-12-26T02:50:29.092Z,12.20
2018-12-26T02:51:29.137Z,13.70
2018-12-26T02:52:29.228Z,11.40
2018-12-26T02:53:29.318Z,10.20
2018-12-26T02:54:29.427Z,10.90
2018-12-26T02:55:29.506Z,11.40
2018-12-26T02:56:29.591Z,10.20
2018-12-26T02:57:29.682Z,10.90
2018-12-26T02:58:29.767Z,10.10
2018-12-26T02:59:29.854Z,12.10
2018-12-26T03:02:12.981Z,10.90
2018-12-26T03:03:13.066Z,11.60
2018-12-26T03:04:13.141Z,13.50
2018-12-26T03:05:13.230Z,12.80
2018-12-26T03:06:13.312Z,12.40
2018-12-26T03:07:13.421Z,13.20
2018-12-26T03:08:13.493Z,12.90
2018-12-26T03:09:13.579Z,11.90
2018-12-26T03:10:13.670Z,11.90
2018-12-26T03:11:13.755Z,13.20
2018-12-26T03:12:13.841Z,13.50
2018-12-26T03:13:13.929Z,12.30
2018-12-26T03:14:14.014Z,12.20
2018-12-26T03:15:14.104Z,11.00
2018-12-26T03:16:14.189Z,11.30
2018-12-26T03:17:14.308Z,10.40
2018-12-26T03:18:14.360Z,12.80
2018-12-26T03:19:14.453Z,13.00
2018-12-26T03:20:14.548Z,11.60
2018-12-26T03:21:14.616Z,12.30
2018-12-26T03:22:14.744Z,13.60
2018-12-26T03:23:14.782Z,15.40
2018-12-26T03:24:14.865Z,13.10
2018-12-26T03:25:14.947Z,12.20
2018-12-26T03:26:15.034Z,11.80
2018-12-26T03:27:15.124Z,12.90
2018-12-26T03:28:15.209Z,13.60
2018-12-26T03:29:15.290Z,13.90
2018-12-26T03:30:15.392Z,13.70
2018-12-26T03:31:15.473Z,10.50
2018-12-26T03:32:15.559Z,11.30
2018-12-26T03:33:15.646Z,10.90
2018-12-26T03:34:15.724Z,10.80
2018-12-26T03:35:15.821Z,12.80
2018-12-26T03:36:15.901Z,11.00
2018-12-26T03:37:15.986Z,10.30
2018-12-26T03:38:16.072Z,10.40
2018-12-26T03:39:16.161Z,10.20
2018-12-26T03:40:16.239Z,9.60
2018-12-26T03:41:16.311Z,10.30
2018-12-26T03:42:16.396Z,12.20
2018-12-26T03:43:16.482Z,11.80
2018-12-26T03:44:16.568Z,11.40
2018-12-26T03:45:16.667Z,12.10
2018-12-26T03:46:16.753Z,12.10
2018-12-26T03:47:16.905Z,11.50
2018-12-26T03:48:16.978Z,10.80
2018-12-26T03:49:17.024Z,10.60
2018-12-26T03:50:17.121Z,11.10
2018-12-26T03:51:17.204Z,10.40
2018-12-26T03:52:17.278Z,11.80
2018-12-26T03:53:17.368Z,10.30
2018-12-26T03:54:17.554Z,10.60
2018-12-26T03:55:17.540Z,11.20
2018-12-26T03:56:17.625Z,11.00
2018-12-26T03:57:17.708Z,9.80
2018-12-26T03:58:17.810Z,12.60
2018-12-26T03:59:17.883Z,11.30
2018-12-26T04:00:17.972Z,13.20
2018-12-26T04:01:18.162Z,11.00
2018-12-26T04:02:18.141Z,11.90
2018-12-26T04:03:18.234Z,10.60
2018-12-26T04:04:18.339Z,10.90
2018-12-26T04:05:18.427Z,12.30
2018-12-26T04:06:18.508Z,10.80
2018-12-26T04:07:18.585Z,11.10
2018-12-26T04:08:18.676Z,14.10
2018-12-26T04:09:18.757Z,11.30
2018-12-26T04:10:18.852Z,10.50
2018-12-26T04:11:18.952Z,11.90
2018-12-26T04:12:19.019Z,14.70
2018-12-26T04:13:19.105Z,9.70
2018-12-26T04:14:19.193Z,10.40
2018-12-26T04:15:19.278Z,10.70
2018-12-26T04:16:19.360Z,12.60
2018-12-26T04:17:19.450Z,13.50
2018-12-26T04:18:19.538Z,13.00
2018-12-26T04:19:19.622Z,12.90
2018-12-26T04:20:19.738Z,11.80
2018-12-26T04:21:19.815Z,13.00
2018-12-26T04:22:19.895Z,10.40
2018-12-26T04:23:19.959Z,10.50
2018-12-26T04:24:20.033Z,10.80
2018-12-26T04:25:20.108Z,11.20
2018-12-26T04:26:20.203Z,10.20
2018-12-26T04:27:20.270Z,11.00
2018-12-26T04:28:20.340Z,12.30
2018-12-26T04:29:20.438Z,12.50
2018-12-26T04:30:20.494Z,14.70
2018-12-26T04:31:20.575Z,11.90
2018-12-26T04:32:20.643Z,9.30
2018-12-26T04:33:20.731Z,10.70
2018-12-26T04:34:20.853Z,11.60
2018-12-26T04:35:20.876Z,9.90
2018-12-26T04:36:20.945Z,10.50
2018-12-26T04:37:21.021Z,12.50
2018-12-26T04:38:21.104Z,11.90
2018-12-26T04:39:21.189Z,10.20
2018-12-26T04:40:21.279Z,10.60
2018-12-26T04:41:21.328Z,11.80
2018-12-26T04:42:21.393Z,12.80
2018-12-26T04:43:21.498Z,12.00
2018-12-26T04:44:21.535Z,10.70
2018-12-26T04:45:21.638Z,12.30
2018-12-26T04:46:21.714Z,11.60
2018-12-26T04:47:21.776Z,12.00
2018-12-26T04:48:21.853Z,11.70
2018-12-26T04:49:23.849Z,11.40
2018-12-26T04:50:22.051Z,11.80
2018-12-26T04:51:22.101Z,10.70
2018-12-26T04:52:22.166Z,11.00
2018-12-26T04:53:22.267Z,11.70
2018-12-26T04:54:22.334Z,10.40
2018-12-26T04:55:22.427Z,11.00
2018-12-26T04:56:22.457Z,13.60
2018-12-26T04:57:24.990Z,10.50
2018-12-26T04:58:22.670Z,13.20
2018-12-26T04:59:22.704Z,11.50
2018-12-26T05:00:22.791Z,13.50
2018-12-26T05:01:22.893Z,15.40
2018-12-26T05:02:22.960Z,14.30
2018-12-26T05:03:23.075Z,14.10
2018-12-26T05:04:23.091Z,11.50
2018-12-26T05:05:23.153Z,12.50
2018-12-26T05:06:23.237Z,12.50
2018-12-26T05:07:23.300Z,12.60
2018-12-26T05:08:23.404Z,12.10
2018-12-26T05:09:23.447Z,11.70
2018-12-26T05:10:23.569Z,10.50
2018-12-26T05:11:23.603Z,11.40
2018-12-26T05:12:23.677Z,13.30
2018-12-26T05:13:23.768Z,11.90
2018-12-26T05:14:23.813Z,12.10
2018-12-26T05:15:23.886Z,12.80
2018-12-26T05:16:24.022Z,11.80
2018-12-26T05:17:24.043Z,13.20
2018-12-26T05:18:24.155Z,12.20
2018-12-26T05:19:24.226Z,12.70
2018-12-26T05:20:24.315Z,11.80
2018-12-26T05:21:24.397Z,12.10
2018-12-26T05:22:24.514Z,12.30
2018-12-26T05:23:24.532Z,12.10
2018-12-26T05:24:24.608Z,10.30
2018-12-26T05:25:24.708Z,11.40
2018-12-26T05:26:24.789Z,13.30
2018-12-26T05:27:33.930Z,11.80
2018-12-26T05:28:24.951Z,12.40
2018-12-26T05:29:24.994Z,15.60
2018-12-26T05:30:25.071Z,15.90
2018-12-26T05:31:25.185Z,17.40
2018-12-26T05:32:25.241Z,18.80
2018-12-26T05:33:25.338Z,21.00
2018-12-26T05:34:25.405Z,20.50
2018-12-26T05:35:25.456Z,17.90
2018-12-26T05:36:25.572Z,14.10
2018-12-26T05:37:25.626Z,12.30
2018-12-26T05:38:25.730Z,12.90
2018-12-26T05:39:25.782Z,14.50
2018-12-26T05:40:25.856Z,14.20
2018-12-26T05:41:25.918Z,14.30
2018-12-26T05:42:26.060Z,13.30
2018-12-26T05:43:26.081Z,19.40
2018-12-26T05:44:26.164Z,17.50
2018-12-26T05:45:26.240Z,16.40
2018-12-26T05:46:26.362Z,15.90
2018-12-26T05:47:26.454Z,18.20
2018-12-26T05:48:26.482Z,17.00
2018-12-26T05:49:26.582Z,18.80
2018-12-26T05:50:26.689Z,21.10
2018-12-26T05:51:26.716Z,19.60
2018-12-26T05:52:26.812Z,16.90
2018-12-26T05:53:26.905Z,16.40
2018-12-26T05:54:26.988Z,16.70
2018-12-26T05:55:27.020Z,15.60
2018-12-26T05:56:27.083Z,15.60
2018-12-26T05:57:27.150Z,18.40
2018-12-26T05:58:27.253Z,15.20
2018-12-26T05:59:27.320Z,14.90
2018-12-26T06:00:27.397Z,14.20
2018-12-26T06:01:27.475Z,14.00
2018-12-26T06:02:27.588Z,16.00
2018-12-26T06:03:27.634Z,15.20
2018-12-26T06:04:27.703Z,16.20
2018-12-26T06:05:27.762Z,16.40
2018-12-26T06:06:27.879Z,15.60
2018-12-26T06:07:27.942Z,15.50
2018-12-26T06:08:27.994Z,14.40
2018-12-26T06:09:28.099Z,14.70
2018-12-26T06:10:28.163Z,15.60
2018-12-26T06:11:28.280Z,13.50
2018-12-26T06:12:28.319Z,15.70
2018-12-26T06:13:28.385Z,16.00
2018-12-26T06:14:28.445Z,14.10
2018-12-26T06:15:28.569Z,14.90
2018-12-26T06:16:28.636Z,15.50
2018-12-26T06:17:28.703Z,13.40
2018-12-26T06:18:28.803Z,15.40
2018-12-26T06:19:28.871Z,16.90
2018-12-26T06:20:28.954Z,14.40
2018-12-26T06:21:29.040Z,15.50
2018-12-26T06:22:29.067Z,14.80
2018-12-26T06:23:29.208Z,17.40
2018-12-26T06:24:29.229Z,15.10
2018-12-26T06:25:29.319Z,17.20
2018-12-26T06:26:29.383Z,17.00
2018-12-26T06:27:29.444Z,17.80
2018-12-26T06:28:29.519Z,15.80
2018-12-26T06:29:29.632Z,21.00
2018-12-26T06:30:29.664Z,17.50
2018-12-26T06:31:29.761Z,16.70
2018-12-26T06:32:29.807Z,16.50
2018-12-26T06:33:29.888Z,18.40
2018-12-26T06:34:29.986Z,22.90
2018-12-26T06:35:30.052Z,18.60
2018-12-26T06:36:30.190Z,17.90
2018-12-26T06:37:30.202Z,17.70
2018-12-26T06:38:30.312Z,23.00
2018-12-26T06:39:30.343Z,18.10
2018-12-26T06:40:30.432Z,16.20
2018-12-26T06:41:30.488Z,16.40
2018-12-26T06:42:30.592Z,14.10
2018-12-26T06:43:30.651Z,16.60
2018-12-26T06:44:32.609Z,18.70
2018-12-26T06:45:30.798Z,20.30
2018-12-26T06:46:30.885Z,20.60
2018-12-26T06:47:31.009Z,21.00
2018-12-26T06:48:31.075Z,19.60
2018-12-26T06:49:31.135Z,20.90
2018-12-26T06:50:31.243Z,19.90
2018-12-26T06:51:31.323Z,20.50
2018-12-26T06:52:31.386Z,21.30
2018-12-26T06:53:31.467Z,20.50
2018-12-26T06:54:31.538Z,20.60
2018-12-26T06:55:31.641Z,19.50
2018-12-26T06:56:31.685Z,20.20
2018-12-26T06:57:31.764Z,22.40
2018-12-26T06:58:31.874Z,21.30
2018-12-26T06:59:31.936Z,21.80
2018-12-26T07:00:32.069Z,23.80
2018-12-26T07:01:32.102Z,20.50
2018-12-26T07:02:32.150Z,21.20
2018-12-26T07:03:32.240Z,21.40
2018-12-26T07:04:32.325Z,22.30
2018-12-26T07:05:32.397Z,22.80
2018-12-26T07:06:32.482Z,23.20
2018-12-26T07:07:32.568Z,21.50
2018-12-26T07:08:32.627Z,23.00
2018-12-26T07:09:32.705Z,23.10
2018-12-26T07:10:32.803Z,22.00
2018-12-26T07:11:32.875Z,22.00
2018-12-26T07:12:32.984Z,23.00
2018-12-26T07:13:33.028Z,22.20
2018-12-26T07:14:33.089Z,22.70
2018-12-26T07:15:33.226Z,21.20
2018-12-26T07:16:33.252Z,21.90
2018-12-26T07:17:33.325Z,23.00
2018-12-26T07:18:33.419Z,24.40
2018-12-26T07:19:33.468Z,22.20
2018-12-26T07:20:33.525Z,20.90
2018-12-26T07:21:33.587Z,22.50
2018-12-26T07:22:33.693Z,23.60
2018-12-26T07:23:33.761Z,25.00
2018-12-26T07:24:33.803Z,23.20
2018-12-26T07:25:33.884Z,24.50
2018-12-26T07:26:33.968Z,26.70
2018-12-26T07:27:34.038Z,23.70
2018-12-26T07:28:34.094Z,24.50
2018-12-26T07:29:34.259Z,24.30
2018-12-26T07:30:34.309Z,23.50
2018-12-26T07:31:34.330Z,24.40
2018-12-26T07:32:34.421Z,25.50
2018-12-26T07:33:34.476Z,23.90
2018-12-26T07:34:42.001Z,27.20
2018-12-26T07:35:34.685Z,24.80
2018-12-26T07:36:34.726Z,24.20
2018-12-26T07:37:34.781Z,23.80
2018-12-26T07:38:34.878Z,25.00
2018-12-26T07:39:34.955Z,24.80
2018-12-26T07:40:35.034Z,25.40
2018-12-26T07:41:35.126Z,23.80
2018-12-26T07:42:35.207Z,23.70
2018-12-26T07:43:35.334Z,24.10
2018-12-26T07:44:35.337Z,24.70
2018-12-26T07:45:35.415Z,24.90
2018-12-26T07:46:35.500Z,25.50
2018-12-26T07:47:35.727Z,22.40
2018-12-26T07:48:35.675Z,23.70
2018-12-26T07:49:35.778Z,25.50
2018-12-26T07:50:35.865Z,23.60
2018-12-26T07:51:35.903Z,24.10
2018-12-26T07:52:36.054Z,24.90
2018-12-26T07:53:36.142Z,23.70
2018-12-26T07:54:36.161Z,22.30
2018-12-26T07:55:36.226Z,22.90
2018-12-26T07:56:36.294Z,23.60
2018-12-26T07:57:36.369Z,23.90
2018-12-26T07:58:36.478Z,24.30
2018-12-26T07:59:37.744Z,22.80
2018-12-26T08:00:36.613Z,23.60
2018-12-26T08:01:36.717Z,22.30
2018-12-26T08:02:36.766Z,22.50
2018-12-26T08:03:36.843Z,23.40
2018-12-26T08:04:36.934Z,21.60
2018-12-26T08:05:37.071Z,22.30
2018-12-26T08:06:37.065Z,23.00
2018-12-26T08:07:37.155Z,23.60
2018-12-26T08:08:37.250Z,24.90
2018-12-26T08:09:37.340Z,21.90
2018-12-26T08:10:37.452Z,23.50
2018-12-26T08:11:37.516Z,24.60
2018-12-26T08:12:37.609Z,22.80
2018-12-26T08:13:37.696Z,23.40
2018-12-26T08:14:37.774Z,22.60
2018-12-26T08:15:37.839Z,27.90
2018-12-26T08:16:37.938Z,23.90
2018-12-26T08:17:37.996Z,23.50
2018-12-26T08:18:38.096Z,25.10
2018-12-26T08:19:38.266Z,25.90
2018-12-26T08:20:38.264Z,24.00
2018-12-26T08:21:38.349Z,25.00
2018-12-26T08:22:38.415Z,22.50
2018-12-26T08:23:38.484Z,24.20
2018-12-26T08:24:38.538Z,23.80
2018-12-26T08:25:38.616Z,22.70
2018-12-26T08:26:38.719Z,21.20
2018-12-26T08:27:38.849Z,23.00
2018-12-26T08:28:38.883Z,24.60
2018-12-26T08:29:38.941Z,20.70
2018-12-26T08:30:39.038Z,21.50
2018-12-26T08:31:39.100Z,24.10
2018-12-26T08:32:39.174Z,22.70
2018-12-26T08:33:39.301Z,20.90
2018-12-26T08:34:39.295Z,21.20
2018-12-26T08:35:39.383Z,20.80
2018-12-26T08:36:39.470Z,20.80
2018-12-26T08:37:39.554Z,19.90
2018-12-26T08:38:39.661Z,20.80
2018-12-26T08:39:39.712Z,21.40
2018-12-26T08:40:39.803Z,22.60
2018-12-26T08:43:22.920Z,20.00
2018-12-26T08:44:23.006Z,19.80
2018-12-26T08:45:23.094Z,20.40
2018-12-26T08:46:23.180Z,21.10
2018-12-26T08:47:23.266Z,20.60
2018-12-26T08:48:23.351Z,20.60
2018-12-26T08:49:23.432Z,20.10
2018-12-26T08:50:23.519Z,20.70
2018-12-26T08:51:23.613Z,21.30
2018-12-26T08:52:23.697Z,21.20
2018-12-26T08:53:23.783Z,21.30
2018-12-26T08:54:23.882Z,21.50
2018-12-26T08:55:23.951Z,19.20
2018-12-26T08:56:24.041Z,21.20
2018-12-26T08:57:24.125Z,22.70
2018-12-26T08:58:24.215Z,21.60
2018-12-26T08:59:24.300Z,21.10
2018-12-26T09:00:24.388Z,21.10
2018-12-26T09:01:24.475Z,22.00
2018-12-26T09:02:24.558Z,19.60
2018-12-26T09:03:24.651Z,19.20
2018-12-26T09:04:24.731Z,20.00
2018-12-26T09:05:24.814Z,20.20
2018-12-26T09:06:24.894Z,21.80
2018-12-26T09:07:24.981Z,19.80
2018-12-26T09:08:25.066Z,20.80
2018-12-26T09:09:25.157Z,22.20
2018-12-26T09:10:25.248Z,23.00
2018-12-26T09:11:25.323Z,22.20
2018-12-26T09:12:25.408Z,20.20
2018-12-26T09:13:25.502Z,20.40
2018-12-26T09:14:25.581Z,21.00
2018-12-26T09:15:25.648Z,20.60
2018-12-26T09:16:25.739Z,18.30
2018-12-26T09:17:25.815Z,20.00
2018-12-26T09:18:25.890Z,19.70
2018-12-26T09:19:25.989Z,19.30
2018-12-26T09:20:26.055Z,19.70
2018-12-26T09:21:26.144Z,20.50
2018-12-26T09:22:26.230Z,20.70
2018-12-26T09:23:26.313Z,20.60
2018-12-26T09:24:26.417Z,19.00
2018-12-26T09:25:26.494Z,20.20
2018-12-26T09:26:26.579Z,20.50
2018-12-26T09:27:26.660Z,20.00
2018-12-26T09:28:26.756Z,20.20
2018-12-26T09:29:26.841Z,21.10
2018-12-26T09:30:26.929Z,20.70
2018-12-26T09:31:27.021Z,19.90
2018-12-26T09:32:27.105Z,22.50
2018-12-26T09:33:27.193Z,20.40
2018-12-26T09:34:27.276Z,22.00
2018-12-26T09:35:27.358Z,21.50
2018-12-26T09:36:27.434Z,21.80
2018-12-26T09:37:27.518Z,21.00
2018-12-26T09:38:27.606Z,19.20
2018-12-26T09:39:27.685Z,18.40
2018-12-26T09:40:27.770Z,21.30
2018-12-26T09:41:27.850Z,20.50
2018-12-26T09:42:27.953Z,20.00
2018-12-26T09:43:28.033Z,21.30
2018-12-26T09:44:28.117Z,20.40
2018-12-26T09:45:28.201Z,21.20
2018-12-26T09:46:28.291Z,22.00
2018-12-26T09:47:28.371Z,22.30
2018-12-26T09:48:28.453Z,20.90
2018-12-26T09:49:28.532Z,21.70
2018-12-26T09:50:28.619Z,21.10
2018-12-26T09:51:28.722Z,20.90
2018-12-26T09:52:28.782Z,20.30
2018-12-26T09:53:28.857Z,19.70
2018-12-26T09:54:28.946Z,21.10
2018-12-26T09:55:29.040Z,19.50
2018-12-26T09:56:29.118Z,21.50
2018-12-26T09:57:29.222Z,20.80
2018-12-26T09:58:29.306Z,20.90
2018-12-26T09:59:29.364Z,20.90
2018-12-26T10:00:29.513Z,20.10
2018-12-26T10:01:29.556Z,21.90
2018-12-26T10:02:29.639Z,22.30
2018-12-26T10:03:29.728Z,20.70
2018-12-26T10:04:29.814Z,19.30
2018-12-26T10:05:29.908Z,19.80
2018-12-26T10:06:29.983Z,18.40
2018-12-26T10:07:30.069Z,18.90
2018-12-26T10:08:30.151Z,19.90
2018-12-26T10:09:30.245Z,18.70
2018-12-26T10:10:30.357Z,19.80
2018-12-26T10:11:30.413Z,21.40
2018-12-26T10:12:30.494Z,18.90
2018-12-26T10:13:30.588Z,19.20
2018-12-26T10:14:30.683Z,20.40
2018-12-26T10:15:30.752Z,21.20
2018-12-26T10:16:30.847Z,19.40
2018-12-26T10:17:30.922Z,21.50
2018-12-26T10:18:31.010Z,20.60
2018-12-26T10:19:31.087Z,18.40
2018-12-26T10:20:31.176Z,19.20
2018-12-26T10:21:31.247Z,19.90
2018-12-26T10:22:31.322Z,18.90
2018-12-26T10:23:31.412Z,19.80
2018-12-26T10:24:31.512Z,19.40
2018-12-26T10:25:31.586Z,19.60
2018-12-26T10:26:31.661Z,19.00
2018-12-26T10:27:31.753Z,18.80
2018-12-26T10:28:31.840Z,20.60
2018-12-26T10:29:31.926Z,20.90
2018-12-26T10:30:32.014Z,20.30
2018-12-26T10:31:32.101Z,20.70
2018-12-26T10:32:32.186Z,20.00
2018-12-26T10:33:32.293Z,17.70
2018-12-26T10:34:32.382Z,17.70
2018-12-26T10:35:32.465Z,18.90
2018-12-26T10:36:32.557Z,20.00
2018-12-26T10:37:32.635Z,19.40
2018-12-26T10:38:32.721Z,19.10
2018-12-26T10:39:32.815Z,17.70
2018-12-26T10:40:32.892Z,19.00
2018-12-26T10:41:32.988Z,20.70
2018-12-26T10:42:33.072Z,18.40
2018-12-26T10:43:33.158Z,18.30
2018-12-26T10:44:33.247Z,19.40
2018-12-26T10:45:33.329Z,17.90
2018-12-26T10:46:33.414Z,16.70
2018-12-26T10:47:33.505Z,19.30
2018-12-26T10:48:33.594Z,19.10
2018-12-26T10:49:33.694Z,18.40
2018-12-26T10:50:33.765Z,20.50
2018-12-26T10:51:33.850Z,17.10
2018-12-26T10:52:33.932Z,17.30
2018-12-26T10:53:34.002Z,18.00
2018-12-26T10:54:34.088Z,16.50
2018-12-26T10:55:34.170Z,16.70
2018-12-26T10:56:34.260Z,18.40
2018-12-26T10:57:34.346Z,16.60
2018-12-26T10:58:34.449Z,18.90
2018-12-26T10:59:34.529Z,17.40
2018-12-26T11:00:34.616Z,19.50
2018-12-26T11:01:34.706Z,16.10
2018-12-26T11:02:34.786Z,17.90
2018-12-26T11:03:34.872Z,17.20
2018-12-26T11:04:34.958Z,16.20
2018-12-26T11:05:35.051Z,18.90
2018-12-26T11:06:35.163Z,17.70
2018-12-26T11:07:35.221Z,18.50
2018-12-26T11:08:35.294Z,15.60
2018-12-26T11:09:35.378Z,18.30
2018-12-26T11:10:35.472Z,18.90
2018-12-26T11:11:35.558Z,18.10
2018-12-26T11:12:35.647Z,17.90
2018-12-26T11:13:35.735Z,19.40
2018-12-26T11:14:35.819Z,17.10
2018-12-26T11:15:35.902Z,17.70
2018-12-26T11:16:35.987Z,17.70
2018-12-26T11:17:36.101Z,41.70
2018-12-26T11:18:36.189Z,22.00
2018-12-26T11:19:36.278Z,22.10
2018-12-26T11:20:36.384Z,19.60
2018-12-26T11:21:36.428Z,17.70
2018-12-26T11:22:36.533Z,17.00
2018-12-26T11:23:36.592Z,18.80
2018-12-26T11:24:36.668Z,17.30
2018-12-26T11:25:36.736Z,18.20
2018-12-26T11:26:36.826Z,17.90
2018-12-26T11:27:36.903Z,17.70
2018-12-26T11:28:36.976Z,20.70
2018-12-26T11:29:37.077Z,19.10
2018-12-26T11:30:37.176Z,18.10
2018-12-26T11:31:37.241Z,18.50
2018-12-26T11:32:37.367Z,17.70
2018-12-26T11:33:37.422Z,19.30
2018-12-26T11:34:37.528Z,19.80
2018-12-26T11:35:37.613Z,19.60
2018-12-26T11:36:37.662Z,17.80
2018-12-26T11:37:37.759Z,20.70
2018-12-26T11:38:37.864Z,18.10
2018-12-26T11:39:37.908Z,19.60
2018-12-26T11:40:37.978Z,18.80
2018-12-26T11:41:38.062Z,23.30
2018-12-26T11:42:38.139Z,21.20
2018-12-26T11:43:38.203Z,20.80
2018-12-26T11:44:38.296Z,23.30
2018-12-26T11:45:38.379Z,25.50
2018-12-26T11:46:38.480Z,21.20
2018-12-26T11:47:38.517Z,23.60
2018-12-26T11:48:38.628Z,20.00
2018-12-26T11:49:38.683Z,21.90
2018-12-26T11:50:38.755Z,21.00
2018-12-26T11:51:38.838Z,20.30
2018-12-26T11:52:38.916Z,19.80
2018-12-26T11:53:39.008Z,20.30
2018-12-26T11:54:39.145Z,21.20
2018-12-26T11:55:39.143Z,21.10
2018-12-26T11:56:39.226Z,20.10
2018-12-26T11:57:39.294Z,19.90
2018-12-26T11:58:39.379Z,22.80
2018-12-26T11:59:39.463Z,20.10
2018-12-26T12:00:39.555Z,18.50
2018-12-26T12:01:39.638Z,19.70
2018-12-26T12:02:39.732Z,18.60
2018-12-26T12:03:39.783Z,18.90
2018-12-26T12:04:39.871Z,18.60
2018-12-26T12:05:39.947Z,19.10
2018-12-26T12:06:40.024Z,18.90
2018-12-26T12:07:40.080Z,18.30
2018-12-26T12:08:40.206Z,17.70
2018-12-26T12:09:40.241Z,20.10
2018-12-26T12:10:40.325Z,16.70
2018-12-26T12:11:40.403Z,20.50
2018-12-26T12:12:40.469Z,18.30
2018-12-26T12:13:40.559Z,18.40
2018-12-26T12:14:40.613Z,19.00
2018-12-26T12:15:40.734Z,17.60
2018-12-26T12:16:40.785Z,20.50
2018-12-26T12:17:40.880Z,18.60
2018-12-26T12:18:41.038Z,19.30
2018-12-26T12:19:41.001Z,18.70
2018-12-26T12:20:41.105Z,18.50
2018-12-26T12:21:41.188Z,17.10
2018-12-26T12:22:41.268Z,17.10
2018-12-26T12:23:41.318Z,19.30
2018-12-26T12:24:41.439Z,17.80
2018-12-26T12:25:41.501Z,16.30
2018-12-26T12:26:41.576Z,17.70
2018-12-26T12:27:41.680Z,18.60
2018-12-26T12:28:41.739Z,17.50
2018-12-26T12:29:41.837Z,19.60
2018-12-26T12:30:41.888Z,18.30
2018-12-26T12:31:41.995Z,16.90
2018-12-26T12:32:42.079Z,18.10
2018-12-26T12:33:42.138Z,17.20
2018-12-26T12:34:42.235Z,17.60
2018-12-26T12:35:42.326Z,18.00
2018-12-26T12:36:42.418Z,19.30
2018-12-26T12:37:42.436Z,16.80
2018-12-26T12:38:42.520Z,18.70
2018-12-26T12:39:42.598Z,17.30
2018-12-26T12:40:42.706Z,18.50
2018-12-26T12:41:42.784Z,18.70
2018-12-26T12:42:42.886Z,16.70
2018-12-26T12:43:42.954Z,18.20
2018-12-26T12:44:43.016Z,17.10
2018-12-26T12:45:43.092Z,18.70
2018-12-26T12:48:26.244Z,18.40
2018-12-26T12:49:26.330Z,19.50
2018-12-26T12:50:26.424Z,19.00
2018-12-26T12:51:26.513Z,16.80
2018-12-26T12:52:26.604Z,17.20
2018-12-26T12:53:26.686Z,17.70
2018-12-26T12:54:26.797Z,19.40
2018-12-26T12:55:26.863Z,19.30
2018-12-26T12:56:26.945Z,18.50
2018-12-26T12:57:27.032Z,16.70
2018-12-26T12:58:27.122Z,20.10
2018-12-26T12:59:27.205Z,18.20
2018-12-26T13:00:27.291Z,19.40
2018-12-26T13:01:27.383Z,17.30